createdAt,value
2023-04-21T00:00:02.264Z,83.10
2023-04-21T00:01:02.415Z,83.85
2023-04-21T00:02:02.262Z,83.85
2023-04-21T00:03:02.428Z,83.92
2023-04-21T00:04:02.343Z,83.65
2023-04-21T00:05:02.253Z,83.95
2023-04-21T00:06:02.191Z,83.85
2023-04-21T00:07:02.189Z,83.85
2023-04-21T00:08:02.160Z,83.85
2023-04-21T00:09:02.148Z,83.34
2023-04-21T00:10:02.140Z,84.06
2023-04-21T00:11:02.131Z,84.47
2023-04-21T00:12:02.140Z,84.16
2023-04-21T00:13:02.123Z,84.57
2023-04-21T00:14:02.113Z,84.20
2023-04-21T00:15:02.086Z,84.77
2023-04-21T00:16:02.106Z,84.26
2023-04-21T00:17:02.065Z,84.81
2023-04-21T00:18:02.187Z,84.26
2023-04-21T00:19:02.047Z,84.47
2023-04-21T00:20:02.043Z,84.88
2023-04-21T00:21:02.019Z,84.71
2023-04-21T00:22:02.035Z,84.77
2023-04-21T00:23:01.995Z,84.67
2023-04-21T00:24:02.002Z,84.98
2023-04-21T00:25:01.968Z,84.06
2023-04-21T00:26:01.990Z,84.30
2023-04-21T00:27:01.949Z,84.50
2023-04-21T00:28:01.939Z,84.77
2023-04-21T00:29:01.953Z,84.20
2023-04-21T00:30:02.069Z,84.77
2023-04-21T00:31:01.946Z,84.61
2023-04-21T00:32:01.924Z,84.20
2023-04-21T00:33:01.934Z,84.09
2023-04-21T00:34:01.894Z,84.61
2023-04-21T00:35:01.868Z,84.71
2023-04-21T00:36:01.884Z,84.41
2023-04-21T00:37:01.845Z,84.81
2023-04-21T00:38:01.850Z,84.41
2023-04-21T00:39:01.816Z,84.30
2023-04-21T00:40:01.829Z,84.30
2023-04-21T00:41:01.792Z,84.91
2023-04-21T00:42:01.796Z,84.81
2023-04-21T00:43:01.802Z,84.85
2023-04-21T00:44:01.938Z,85.16
2023-04-21T00:45:01.762Z,85.06
2023-04-21T00:46:01.757Z,84.85
2023-04-21T00:47:01.778Z,84.85
2023-04-21T00:48:01.797Z,84.95
2023-04-21T00:49:01.709Z,84.14
2023-04-21T00:50:01.710Z,84.24
2023-04-21T00:51:01.685Z,84.65
2023-04-21T00:52:01.693Z,84.03
2023-04-21T00:53:01.656Z,84.24
2023-04-21T00:54:01.651Z,84.24
2023-04-21T00:55:01.637Z,84.24
2023-04-21T00:56:01.659Z,84.14
2023-04-21T00:57:02.812Z,84.24
2023-04-21T00:58:01.638Z,84.55
2023-04-21T00:59:01.614Z,84.24
2023-04-21T01:00:01.642Z,84.14
2023-04-21T01:01:01.630Z,83.73
2023-04-21T01:02:01.700Z,83.93
2023-04-21T01:03:01.868Z,84.14
2023-04-21T01:04:01.850Z,84.14
2023-04-21T01:05:01.536Z,83.62
2023-04-21T01:06:01.517Z,84.24
2023-04-21T01:07:01.503Z,83.11
2023-04-21T01:08:01.493Z,83.62
2023-04-21T01:09:01.507Z,84.03
2023-04-21T01:10:01.669Z,83.46
2023-04-21T01:11:01.457Z,83.22
2023-04-21T01:12:01.606Z,83.42
2023-04-21T01:13:01.447Z,83.32
2023-04-21T01:14:01.437Z,82.60
2023-04-21T01:15:01.446Z,82.81
2023-04-21T01:16:01.465Z,82.50
2023-04-21T01:17:01.489Z,82.09
2023-04-21T01:18:01.531Z,81.88
2023-04-21T01:19:01.367Z,81.58
2023-04-21T01:20:01.356Z,81.79
2023-04-21T01:21:01.345Z,81.58
2023-04-21T01:22:01.453Z,81.38
2023-04-21T01:23:01.356Z,81.58
2023-04-21T01:24:01.340Z,81.38
2023-04-21T01:25:01.301Z,81.07
2023-04-21T01:26:01.287Z,81.17
2023-04-21T01:27:01.292Z,81.17
2023-04-21T01:28:01.281Z,81.38
2023-04-21T01:29:01.260Z,81.58
2023-04-21T01:30:01.260Z,81.48
2023-04-21T01:31:01.400Z,81.62
2023-04-21T01:32:01.267Z,81.41
2023-04-21T01:33:01.246Z,81.62
2023-04-21T01:34:01.271Z,81.51
2023-04-21T01:35:01.187Z,81.31
2023-04-21T01:36:01.197Z,81.41
2023-04-21T01:37:01.166Z,81.62
2023-04-21T01:38:01.154Z,81.62
2023-04-21T01:39:01.145Z,81.62
2023-04-21T01:40:01.139Z,81.31
2023-04-21T01:41:01.155Z,81.17
2023-04-21T01:42:01.106Z,81.21
2023-04-21T01:43:01.098Z,81.10
2023-04-21T01:44:01.109Z,81.21
2023-04-21T01:45:01.150Z,81.31
2023-04-21T01:46:01.117Z,81.21
2023-04-21T01:47:01.060Z,81.01
2023-04-21T01:48:01.066Z,80.90
2023-04-21T01:49:01.039Z,80.90
2023-04-21T01:50:01.062Z,81.21
2023-04-21T01:51:01.009Z,81.10
2023-04-21T01:52:01.014Z,80.90
2023-04-21T01:53:01.127Z,80.60
2023-04-21T01:54:00.989Z,80.69
2023-04-21T01:55:00.984Z,80.90
2023-04-21T01:56:00.960Z,80.49
2023-04-21T01:57:01.010Z,80.39
2023-04-21T01:58:00.926Z,80.49
2023-04-21T01:59:00.922Z,80.90
2023-04-21T02:00:00.933Z,80.29
2023-04-21T02:01:00.927Z,80.39
2023-04-21T02:02:00.913Z,80.29
2023-04-21T02:03:01.009Z,80.60
2023-04-21T02:04:01.046Z,80.60
2023-04-21T02:05:00.874Z,80.19
2023-04-21T02:06:00.852Z,80.39
2023-04-21T02:07:00.826Z,80.19
2023-04-21T02:08:00.816Z,80.29
2023-04-21T02:09:00.820Z,80.39
2023-04-21T02:10:00.794Z,80.33
2023-04-21T02:11:00.829Z,80.29
2023-04-21T02:12:00.770Z,79.78
2023-04-21T02:13:00.753Z,80.22
2023-04-21T02:14:00.747Z,79.98
2023-04-21T02:15:00.759Z,80.08
2023-04-21T02:16:12.534Z,80.29
2023-04-21T02:17:01.718Z,80.33
2023-04-21T02:18:00.776Z,80.02
2023-04-21T02:19:00.693Z,79.98
2023-04-21T02:20:02.590Z,79.98
2023-04-21T02:21:00.706Z,79.78
2023-04-21T02:22:00.671Z,79.16
2023-04-21T02:23:00.653Z,79.88
2023-04-21T02:24:00.651Z,79.71
2023-04-21T02:25:00.622Z,79.68
2023-04-21T02:26:00.619Z,79.57
2023-04-21T02:27:00.686Z,79.61
2023-04-21T02:28:00.606Z,79.57
2023-04-21T02:29:00.568Z,79.68
2023-04-21T02:30:00.568Z,79.68
2023-04-21T02:31:00.590Z,79.68
2023-04-21T02:32:07.822Z,79.10
2023-04-21T02:33:01.567Z,79.82
2023-04-21T02:34:00.528Z,79.61
2023-04-21T02:35:00.528Z,79.20
2023-04-21T02:36:00.497Z,79.16
2023-04-21T02:37:00.540Z,79.47
2023-04-21T02:38:00.570Z,79.27
2023-04-21T02:39:00.463Z,79.00
2023-04-21T02:40:00.458Z,79.50
2023-04-21T02:41:00.499Z,79.20
2023-04-21T02:42:00.427Z,79.20
2023-04-21T02:43:00.425Z,79.10
2023-04-21T02:44:00.396Z,79.10
2023-04-21T02:45:00.401Z,79.50
2023-04-21T02:46:00.398Z,78.89
2023-04-21T02:47:00.513Z,78.38
2023-04-21T02:48:00.449Z,79.41
2023-04-21T02:49:00.349Z,78.69
2023-04-21T02:50:00.366Z,78.59
2023-04-21T02:51:00.343Z,78.89
2023-04-21T02:52:00.309Z,79.41
2023-04-21T02:53:00.314Z,79.10
2023-04-21T02:54:00.365Z,78.59
2023-04-21T02:55:00.269Z,78.49
2023-04-21T02:56:00.264Z,78.69
2023-04-21T02:57:00.252Z,78.49
2023-04-21T02:58:00.276Z,78.49
2023-04-21T02:59:00.296Z,78.79
2023-04-21T03:00:00.244Z,78.59
2023-04-21T03:01:00.274Z,78.79
2023-04-21T03:02:00.377Z,78.52
2023-04-21T03:03:00.387Z,78.69
2023-04-21T03:04:00.323Z,78.49
2023-04-21T03:05:00.170Z,78.42
2023-04-21T03:06:00.169Z,78.59
2023-04-21T03:07:00.227Z,79.03
2023-04-21T03:08:00.189Z,78.83
2023-04-21T03:09:00.134Z,78.83
2023-04-21T03:10:00.188Z,78.63
2023-04-21T03:11:00.182Z,78.83
2023-04-21T03:12:00.104Z,78.52
2023-04-21T03:13:00.076Z,79.03
2023-04-21T03:14:00.944Z,78.93
2023-04-21T03:15:00.054Z,78.89
2023-04-21T03:16:00.108Z,78.49
2023-04-21T03:17:00.158Z,78.52
2023-04-21T03:18:00.081Z,78.72
2023-04-21T03:19:00.009Z,78.63
2023-04-21T03:20:00.033Z,78.83
2023-04-21T03:20:59.987Z,78.52
2023-04-21T03:21:59.974Z,78.72
2023-04-21T03:22:59.958Z,78.63
2023-04-21T03:23:59.954Z,78.52
2023-04-21T03:24:59.953Z,78.52
2023-04-21T03:25:59.982Z,78.52
2023-04-21T03:26:59.923Z,78.83
2023-04-21T03:27:59.901Z,78.86
2023-04-21T03:28:59.913Z,78.86
2023-04-21T03:30:00.037Z,79.07
2023-04-21T03:30:59.873Z,78.76
2023-04-21T03:31:59.891Z,78.97
2023-04-21T03:32:59.881Z,79.27
2023-04-21T03:33:59.841Z,79.38
2023-04-21T03:34:59.845Z,79.17
2023-04-21T03:35:59.827Z,79.17
2023-04-21T03:36:59.824Z,78.76
2023-04-21T03:39:12.850Z,79.38
2023-04-21T03:40:00.768Z,79.48
2023-04-21T03:40:59.782Z,78.97
2023-04-21T03:41:59.761Z,79.17
2023-04-21T03:42:59.744Z,79.07
2023-04-21T03:43:59.749Z,78.97
2023-04-21T03:44:59.709Z,79.58
2023-04-21T03:45:59.725Z,79.58
2023-04-21T03:46:59.727Z,79.48
2023-04-21T03:47:59.783Z,79.62
2023-04-21T03:49:01.873Z,79.38
2023-04-21T03:49:59.663Z,79.48
2023-04-21T03:50:59.684Z,79.07
2023-04-21T03:51:59.650Z,79.17
2023-04-21T03:52:59.627Z,79.07
2023-04-21T03:53:59.615Z,79.48
2023-04-21T03:54:59.599Z,79.27
2023-04-21T03:55:59.613Z,79.00
2023-04-21T03:56:59.604Z,79.31
2023-04-21T03:57:59.602Z,79.93
2023-04-21T03:58:59.565Z,79.21
2023-04-21T03:59:59.546Z,79.52
2023-04-21T04:00:59.538Z,79.62
2023-04-21T04:01:59.549Z,79.21
2023-04-21T04:02:59.733Z,79.21
2023-04-21T04:03:59.734Z,79.68
2023-04-21T04:04:59.616Z,79.31
2023-04-21T04:05:59.513Z,79.41
2023-04-21T04:06:59.488Z,79.58
2023-04-21T04:07:59.450Z,79.17
2023-04-21T04:08:59.472Z,78.86
2023-04-21T04:09:59.438Z,79.21
2023-04-21T04:10:59.425Z,79.21
2023-04-21T04:11:59.408Z,79.41
2023-04-21T04:12:59.400Z,79.31
2023-04-21T04:13:59.430Z,79.27
2023-04-21T04:14:59.419Z,79.21
2023-04-21T04:15:59.431Z,79.31
2023-04-21T04:16:59.364Z,80.03
2023-04-21T04:17:59.369Z,79.21
2023-04-21T04:18:59.360Z,79.31
2023-04-21T04:19:59.334Z,79.31
2023-04-21T04:20:59.329Z,78.97
2023-04-21T04:21:59.318Z,79.31
2023-04-21T04:22:59.308Z,79.21
2023-04-21T04:23:59.291Z,79.21
2023-04-21T04:24:59.273Z,79.11
2023-04-21T04:25:59.258Z,79.52
2023-04-21T04:26:59.245Z,79.41
2023-04-21T04:27:59.275Z,79.52
2023-04-21T04:28:59.237Z,79.21
2023-04-21T04:29:59.241Z,78.80
2023-04-21T04:30:59.236Z,78.90
2023-04-21T04:31:59.200Z,79.21
2023-04-21T04:32:59.244Z,79.21
2023-04-21T04:33:59.233Z,79.52
2023-04-21T04:34:59.161Z,79.11
2023-04-21T04:35:59.186Z,79.21
2023-04-21T04:36:59.147Z,78.90
2023-04-21T04:37:59.142Z,79.11
2023-04-21T04:38:59.122Z,78.90
2023-04-21T04:39:59.106Z,79.41
2023-04-21T04:40:59.098Z,78.97
2023-04-21T04:41:59.091Z,78.70
2023-04-21T04:42:59.067Z,79.00
2023-04-21T04:44:00.742Z,78.90
2023-04-21T04:44:59.042Z,79.38
2023-04-21T04:45:59.073Z,78.59
2023-04-21T04:46:59.158Z,78.56
2023-04-21T04:47:59.075Z,78.97
2023-04-21T04:48:59.002Z,78.45
2023-04-21T04:49:58.988Z,78.08
2023-04-21T04:50:58.999Z,78.25
2023-04-21T04:51:58.963Z,78.25
2023-04-21T04:52:58.956Z,78.35
2023-04-21T04:53:58.953Z,77.94
2023-04-21T04:55:06.040Z,78.05
2023-04-21T04:55:59.018Z,78.86
2023-04-21T04:56:59.495Z,78.56
2023-04-21T04:57:58.946Z,78.05
2023-04-21T04:58:58.884Z,78.25
2023-04-21T04:59:58.872Z,77.94
2023-04-21T05:00:58.892Z,78.05
2023-04-21T05:01:58.901Z,78.05
2023-04-21T05:02:59.038Z,78.15
2023-04-21T05:03:59.072Z,78.21
2023-04-21T05:04:58.935Z,78.45
2023-04-21T05:05:58.821Z,78.25
2023-04-21T05:06:58.794Z,77.91
2023-04-21T05:07:58.834Z,78.01
2023-04-21T05:08:58.779Z,77.50
2023-04-21T05:09:58.788Z,77.50
2023-04-21T05:10:58.772Z,77.29
2023-04-21T05:11:58.752Z,77.19
2023-04-21T05:12:58.728Z,77.09
2023-04-21T05:13:58.720Z,76.75
2023-04-21T05:14:58.708Z,76.64
2023-04-21T05:15:58.708Z,76.88
2023-04-21T05:16:58.742Z,76.88
2023-04-21T05:17:58.714Z,76.23
2023-04-21T05:18:58.674Z,76.34
2023-04-21T05:19:58.667Z,76.34
2023-04-21T05:20:58.637Z,76.54
2023-04-21T05:21:58.630Z,76.54
2023-04-21T05:22:58.626Z,76.13
2023-04-21T05:23:58.606Z,76.43
2023-04-21T05:24:58.608Z,76.54
2023-04-21T05:25:58.583Z,76.13
2023-04-21T05:26:59.480Z,75.93
2023-04-21T05:27:58.574Z,76.23
2023-04-21T05:28:58.563Z,76.09
2023-04-21T05:29:58.561Z,76.20
2023-04-21T05:30:58.538Z,75.07
2023-04-21T05:31:58.578Z,75.59
2023-04-21T05:32:58.570Z,75.38
2023-04-21T05:33:58.510Z,76.20
2023-04-21T05:34:58.479Z,75.38
2023-04-21T05:35:58.475Z,75.59
2023-04-21T05:36:58.478Z,74.76
2023-04-21T05:37:58.462Z,75.04
2023-04-21T05:38:58.439Z,75.04
2023-04-21T05:39:58.434Z,74.93
2023-04-21T05:40:58.458Z,74.32
2023-04-21T05:41:58.419Z,74.52
2023-04-21T05:42:58.534Z,74.59
2023-04-21T05:43:58.392Z,74.90
2023-04-21T05:44:58.367Z,74.08
2023-04-21T05:45:58.450Z,73.94
2023-04-21T05:46:58.347Z,73.54
2023-04-21T05:47:58.399Z,73.36
2023-04-21T05:48:58.327Z,73.23
2023-04-21T05:49:58.334Z,72.62
2023-04-21T05:50:58.315Z,72.58
2023-04-21T05:51:58.304Z,72.62
2023-04-21T05:52:58.489Z,72.28
2023-04-21T05:53:58.272Z,72.04
2023-04-21T05:54:59.055Z,71.46
2023-04-21T05:55:58.262Z,71.33
2023-04-21T05:56:58.292Z,71.02
2023-04-21T05:57:58.270Z,71.12
2023-04-21T05:58:58.314Z,70.37
2023-04-21T05:59:58.307Z,70.89
2023-04-21T06:00:58.192Z,70.89
2023-04-21T06:01:58.174Z,70.07
2023-04-21T06:02:58.368Z,70.04
2023-04-21T06:03:58.366Z,70.04
2023-04-21T06:04:58.370Z,69.53
2023-04-21T06:05:58.289Z,68.88
2023-04-21T06:06:58.160Z,69.26
2023-04-21T06:07:58.143Z,69.36
2023-04-21T06:08:58.095Z,67.69
2023-04-21T06:09:58.129Z,68.62
2023-04-21T06:10:58.089Z,68.27
2023-04-21T06:11:58.186Z,67.33
2023-04-21T06:12:58.049Z,66.52
2023-04-21T06:13:58.097Z,66.92
2023-04-21T06:14:58.054Z,66.72
2023-04-21T06:15:58.069Z,65.88
2023-04-21T06:16:58.002Z,65.44
2023-04-21T06:17:58.121Z,64.73
2023-04-21T06:18:57.994Z,64.09
2023-04-21T06:19:57.993Z,64.09
2023-04-21T06:20:57.962Z,63.45
2023-04-21T06:21:57.980Z,62.78
2023-04-21T06:22:57.942Z,62.17
2023-04-21T06:23:57.927Z,61.20
2023-04-21T06:24:58.700Z,60.79
2023-04-21T06:25:57.909Z,60.13
2023-04-21T06:26:57.906Z,59.42
2023-04-21T06:27:57.887Z,58.86
2023-04-21T06:28:57.878Z,57.39
2023-04-21T06:29:57.884Z,56.96
2023-04-21T06:30:57.847Z,56.15
2023-04-21T06:31:57.936Z,56.05
2023-04-21T06:32:57.894Z,55.74
2023-04-21T06:33:57.822Z,54.91
2023-04-21T06:34:57.838Z,54.66
2023-04-21T06:35:57.808Z,53.92
2023-04-21T06:36:57.779Z,53.20
2023-04-21T06:37:57.792Z,52.44
2023-04-21T06:38:57.755Z,52.01
2023-04-21T06:39:57.783Z,51.18
2023-04-21T06:40:57.767Z,50.68
2023-04-21T06:41:57.726Z,50.26
2023-04-21T06:42:57.714Z,50.03
2023-04-21T06:43:57.704Z,49.38
2023-04-21T06:44:57.702Z,47.73
2023-04-21T06:45:57.683Z,47.00
2023-04-21T06:46:57.754Z,46.96
2023-04-21T06:47:57.668Z,45.46
2023-04-21T06:48:57.646Z,46.56
2023-04-21T06:49:57.655Z,45.74
2023-04-21T06:50:57.627Z,45.64
2023-04-21T06:51:57.610Z,45.86
2023-04-21T06:52:57.608Z,45.96
2023-04-21T06:53:57.623Z,44.76
2023-04-21T06:54:57.577Z,45.76
2023-04-21T06:55:57.595Z,45.06
2023-04-21T06:56:57.554Z,44.20
2023-04-21T06:57:57.560Z,43.25
2023-04-21T06:58:57.567Z,43.41
2023-04-21T06:59:57.523Z,42.49
2023-04-21T07:00:57.543Z,42.67
2023-04-21T07:01:57.525Z,41.42
2023-04-21T07:02:57.591Z,39.40
2023-04-21T07:03:57.596Z,39.62
2023-04-21T07:04:57.480Z,39.64
2023-04-21T07:05:57.458Z,40.38
2023-04-21T07:06:57.467Z,40.24
2023-04-21T07:07:57.436Z,39.61
2023-04-21T07:08:57.429Z,39.39
2023-04-21T07:09:57.442Z,38.24
2023-04-21T07:10:57.536Z,38.06
2023-04-21T07:11:57.415Z,38.47
2023-04-21T07:12:57.521Z,39.18
2023-04-21T07:13:57.375Z,39.18
2023-04-21T07:14:57.357Z,38.39
2023-04-21T07:15:57.347Z,38.06
2023-04-21T07:16:57.487Z,37.45
2023-04-21T07:17:57.591Z,36.69
2023-04-21T07:18:57.314Z,36.30
2023-04-21T07:19:58.037Z,36.64
2023-04-21T07:20:57.315Z,34.53
2023-04-21T07:21:57.297Z,35.65
2023-04-21T07:22:57.269Z,34.43
2023-04-21T07:23:57.263Z,34.30
2023-04-21T07:24:57.262Z,33.29
2023-04-21T07:25:57.296Z,34.23
2023-04-21T07:26:57.223Z,33.82
2023-04-21T07:27:57.223Z,34.05
2023-04-21T07:28:57.205Z,34.43
2023-04-21T07:29:57.252Z,34.51
2023-04-21T07:30:57.230Z,32.98
2023-04-21T07:31:57.550Z,32.56
2023-04-21T07:32:57.205Z,32.04
2023-04-21T07:33:57.167Z,31.34
2023-04-21T07:34:57.139Z,31.11
2023-04-21T07:35:57.139Z,30.51
2023-04-21T07:36:57.116Z,30.30
2023-04-21T07:37:57.110Z,30.11
2023-04-21T07:38:57.114Z,31.20
2023-04-21T07:39:57.107Z,29.93
2023-04-21T07:40:57.072Z,29.92
2023-04-21T07:41:57.077Z,30.13
2023-04-21T07:42:57.065Z,31.68
2023-04-21T07:43:57.046Z,31.47
2023-04-21T07:44:57.024Z,30.96
2023-04-21T07:45:57.038Z,32.14
2023-04-21T07:46:57.037Z,30.68
2023-04-21T07:47:57.231Z,30.94
2023-04-21T07:48:56.986Z,31.42
2023-04-21T07:49:56.977Z,30.93
2023-04-21T07:50:57.011Z,31.16
2023-04-21T07:51:56.958Z,31.44
2023-04-21T07:52:56.937Z,30.32
2023-04-21T07:53:56.928Z,29.90
2023-04-21T07:54:56.919Z,30.11
2023-04-21T07:55:56.914Z,29.93
2023-04-21T07:56:56.915Z,30.35
2023-04-21T07:57:56.905Z,30.63
2023-04-21T07:58:56.874Z,29.65
2023-04-21T07:59:56.875Z,29.66
2023-04-21T08:00:56.859Z,30.73
2023-04-21T08:01:56.861Z,29.94
2023-04-21T08:02:56.874Z,30.34
2023-04-21T08:03:56.906Z,29.51
2023-04-21T08:04:56.879Z,29.07
2023-04-21T08:05:57.048Z,29.79
2023-04-21T08:06:56.854Z,28.20
2023-04-21T08:07:56.806Z,28.82
2023-04-21T08:08:56.767Z,29.43
2023-04-21T08:09:56.836Z,29.38
2023-04-21T08:10:56.746Z,28.75
2023-04-21T08:11:56.765Z,27.53
2023-04-21T08:12:56.726Z,27.50
2023-04-21T08:13:56.735Z,26.60
2023-04-21T08:14:56.986Z,25.61
2023-04-21T08:15:56.700Z,25.40
2023-04-21T08:16:57.395Z,25.50
2023-04-21T08:17:56.708Z,26.11
2023-04-21T08:18:56.669Z,26.04
2023-04-21T08:19:58.554Z,26.43
2023-04-21T08:20:56.652Z,25.82
2023-04-21T08:21:56.630Z,25.81
2023-04-21T08:22:56.649Z,25.60
2023-04-21T08:23:56.776Z,25.12
2023-04-21T08:24:56.606Z,25.62
2023-04-21T08:25:56.618Z,25.52
2023-04-21T08:26:56.575Z,25.61
2023-04-21T08:27:56.628Z,25.42
2023-04-21T08:28:56.607Z,25.78
2023-04-21T08:29:56.574Z,25.00
2023-04-21T08:30:56.532Z,25.00
2023-04-21T08:31:56.562Z,25.60
2023-04-21T08:32:56.555Z,25.20
2023-04-21T08:34:01.783Z,25.16
2023-04-21T08:34:57.488Z,26.72
2023-04-21T08:36:05.371Z,25.43
2023-04-21T08:36:57.489Z,24.60
2023-04-21T08:37:56.475Z,24.27
2023-04-21T08:38:56.449Z,23.84
2023-04-21T08:39:56.442Z,23.35
2023-04-21T08:40:56.438Z,23.33
2023-04-21T08:41:56.415Z,22.75
2023-04-21T08:42:58.794Z,22.85
2023-04-21T08:43:56.398Z,22.75
2023-04-21T08:44:56.389Z,22.67
2023-04-21T08:45:56.466Z,22.69
2023-04-21T08:46:56.394Z,23.67
2023-04-21T08:47:56.426Z,23.38
2023-04-21T08:48:56.350Z,22.77
2023-04-21T08:49:56.336Z,22.97
2023-04-21T08:50:56.323Z,23.99
2023-04-21T08:51:56.322Z,23.30
2023-04-21T08:52:56.329Z,24.41
2023-04-21T08:53:56.302Z,25.04
2023-04-21T08:54:56.280Z,25.95
2023-04-21T08:56:09.969Z,25.83
2023-04-21T08:57:07.867Z,25.01
2023-04-21T08:57:57.275Z,24.17
2023-04-21T08:58:56.262Z,23.86
2023-04-21T08:59:56.234Z,23.78
2023-04-21T09:00:56.281Z,24.17
2023-04-21T09:01:56.236Z,23.50
2023-04-21T09:03:00.949Z,24.19
2023-04-21T09:03:57.375Z,23.39
2023-04-21T09:04:56.568Z,22.89
2023-04-21T09:05:56.408Z,22.77
2023-04-21T09:06:56.179Z,22.25
2023-04-21T09:07:56.181Z,22.34
2023-04-21T09:08:56.279Z,23.04
2023-04-21T09:09:56.153Z,22.85
2023-04-21T09:10:56.174Z,22.53
2023-04-21T09:11:56.112Z,21.93
2023-04-21T09:12:56.121Z,21.53
2023-04-21T09:13:56.092Z,21.34
2023-04-21T09:14:56.084Z,21.93
2023-04-21T09:15:56.075Z,21.93
2023-04-21T09:16:56.099Z,21.91
2023-04-21T09:17:56.144Z,21.82
2023-04-21T09:18:56.041Z,22.10
2023-04-21T09:19:56.033Z,22.12
2023-04-21T09:20:56.116Z,22.03
2023-04-21T09:21:56.013Z,22.12
2023-04-21T09:22:56.067Z,21.44
2023-04-21T09:23:56.007Z,22.03
2023-04-21T09:24:55.985Z,21.96
2023-04-21T09:25:56.001Z,22.26
2023-04-21T09:26:55.969Z,23.03
2023-04-21T09:27:55.956Z,22.03
2023-04-21T09:28:55.952Z,21.95
2023-04-21T09:29:56.028Z,21.17
2023-04-21T09:30:55.958Z,22.17
2023-04-21T09:31:55.917Z,22.31
2023-04-21T09:32:55.934Z,22.79
2023-04-21T09:33:59.258Z,23.07
2023-04-21T09:34:55.885Z,22.35
2023-04-21T09:37:33.840Z,23.36
2023-04-21T09:38:25.979Z,22.55
2023-04-21T09:39:42.640Z,22.72
2023-04-21T09:40:25.933Z,22.81
2023-04-21T09:41:24.928Z,21.93
2023-04-21T09:42:25.121Z,21.65
2023-04-21T09:43:24.914Z,21.00
2023-04-21T09:44:25.058Z,22.28
2023-04-21T09:45:39.135Z,22.69
2023-04-21T09:46:26.919Z,23.07
2023-04-21T09:47:24.902Z,22.78
2023-04-21T09:48:24.854Z,22.97
2023-04-21T09:49:24.860Z,22.94
2023-04-21T09:50:48.184Z,22.65
2023-04-21T09:51:37.390Z,22.17
2023-04-21T09:52:25.835Z,23.18
2023-04-21T09:53:24.800Z,22.31
2023-04-21T09:55:24.781Z,24.00
2023-04-21T09:56:24.774Z,23.10
2023-04-21T09:57:24.775Z,23.28
2023-04-21T09:58:24.759Z,22.88
2023-04-21T09:59:24.749Z,22.65
2023-04-21T10:00:24.801Z,22.62
2023-04-21T10:01:24.883Z,20.74
2023-04-21T10:02:24.945Z,20.45
2023-04-21T10:03:24.810Z,20.94
2023-04-21T10:04:25.141Z,20.88
2023-04-21T10:05:24.741Z,20.90
2023-04-21T10:06:24.684Z,21.99
2023-04-21T10:07:24.663Z,22.85
2023-04-21T10:08:24.660Z,21.57
2023-04-21T10:09:24.649Z,21.11
2023-04-21T10:10:24.643Z,21.89
2023-04-21T10:11:24.626Z,22.03
2023-04-21T10:12:24.615Z,21.73
2023-04-21T10:13:24.611Z,22.38
2023-04-21T10:14:24.597Z,21.80
2023-04-21T10:15:24.584Z,21.77
2023-04-21T10:16:24.608Z,20.77
2023-04-21T10:17:24.628Z,20.95
2023-04-21T10:18:24.553Z,19.94
2023-04-21T10:19:24.550Z,19.63
2023-04-21T10:20:24.540Z,18.38
2023-04-21T10:21:24.620Z,19.17
2023-04-21T10:22:24.530Z,19.15
2023-04-21T10:23:24.543Z,20.23
2023-04-21T10:24:24.507Z,20.50
2023-04-21T10:25:24.483Z,19.35
2023-04-21T10:26:24.485Z,19.35
2023-04-21T10:27:24.464Z,19.35
2023-04-21T10:28:24.461Z,19.07
2023-04-21T10:29:24.446Z,19.68
2023-04-21T10:30:24.702Z,19.86
2023-04-21T10:31:24.454Z,19.96
2023-04-21T10:32:24.458Z,20.07
2023-04-21T10:33:24.408Z,19.96
2023-04-21T10:34:24.404Z,20.26
2023-04-21T10:35:24.410Z,19.96
2023-04-21T10:36:24.391Z,19.90
2023-04-21T10:37:24.386Z,21.20
2023-04-21T10:38:24.374Z,21.92
2023-04-21T10:39:24.371Z,21.89
2023-04-21T10:40:36.462Z,22.07
2023-04-21T10:41:25.331Z,20.79
2023-04-21T10:42:24.321Z,20.70
2023-04-21T10:43:24.365Z,21.37
2023-04-21T10:44:24.301Z,21.19
2023-04-21T10:45:24.296Z,21.89
2023-04-21T10:46:24.310Z,21.00
2023-04-21T10:47:24.322Z,21.67
2023-04-21T10:48:24.297Z,21.17
2023-04-21T10:49:24.256Z,21.18
2023-04-21T10:50:24.249Z,21.18
2023-04-21T10:51:24.252Z,21.29
2023-04-21T10:52:24.342Z,21.09
2023-04-21T10:53:24.234Z,21.00
2023-04-21T10:54:24.217Z,21.61
2023-04-21T10:55:24.207Z,21.42
2023-04-21T10:56:24.201Z,22.48
2023-04-21T10:57:24.194Z,22.90
2023-04-21T10:58:24.164Z,23.07
2023-04-21T10:59:24.159Z,22.49
2023-04-21T11:00:24.379Z,22.81
2023-04-21T11:01:24.209Z,22.71
2023-04-21T11:02:24.952Z,22.49
2023-04-21T11:03:24.339Z,21.91
2023-04-21T11:04:24.856Z,22.20
2023-04-21T11:05:24.098Z,22.21
2023-04-21T11:06:24.097Z,21.91
2023-04-21T11:07:24.097Z,22.39
2023-04-21T11:08:24.063Z,23.10
2023-04-21T11:09:24.400Z,22.41
2023-04-21T11:10:24.059Z,22.72
2023-04-21T11:11:24.045Z,22.53
2023-04-21T11:12:24.029Z,23.00
2023-04-21T11:13:24.023Z,22.56
2023-04-21T11:14:24.002Z,24.05
2023-04-21T11:15:24.023Z,24.43
2023-04-21T11:16:24.020Z,24.13
2023-04-21T11:17:24.042Z,24.41
2023-04-21T11:18:23.962Z,23.52
2023-04-21T11:19:24.005Z,23.83
2023-04-21T11:20:23.945Z,23.32
2023-04-21T11:21:23.937Z,22.91
2023-04-21T11:22:23.927Z,22.99
2023-04-21T11:23:23.931Z,22.79
2023-04-21T11:24:23.915Z,23.11
2023-04-21T11:25:23.919Z,23.73
2023-04-21T11:26:23.891Z,23.73
2023-04-21T11:27:23.884Z,24.32
2023-04-21T11:28:24.373Z,24.74
2023-04-21T11:29:23.860Z,25.15
2023-04-21T11:30:23.877Z,24.74
2023-04-21T11:31:23.894Z,24.55
2023-04-21T11:32:23.837Z,24.86
2023-04-21T11:33:23.920Z,25.70
2023-04-21T11:34:23.807Z,26.90
2023-04-21T11:35:23.832Z,26.91
2023-04-21T11:36:23.791Z,25.81
2023-04-21T11:37:23.788Z,25.89
2023-04-21T11:38:23.776Z,25.78
2023-04-21T11:39:23.764Z,26.10
2023-04-21T11:40:23.756Z,25.73
2023-04-21T11:41:23.786Z,25.93
2023-04-21T11:42:23.735Z,26.04
2023-04-21T11:43:23.726Z,27.62
2023-04-21T11:44:23.713Z,27.42
2023-04-21T11:45:24.364Z,27.64
2023-04-21T11:46:23.771Z,27.43
2023-04-21T11:47:23.743Z,26.92
2023-04-21T11:48:23.695Z,26.69
2023-04-21T11:49:23.667Z,27.26
2023-04-21T11:50:23.664Z,26.16
2023-04-21T11:51:23.696Z,26.15
2023-04-21T11:52:23.758Z,25.66
2023-04-21T11:53:23.637Z,24.90
2023-04-21T11:54:23.855Z,25.90
2023-04-21T11:55:23.607Z,25.52
2023-04-21T11:56:23.597Z,26.92
2023-04-21T11:57:23.627Z,27.53
2023-04-21T11:58:23.581Z,26.93
2023-04-21T11:59:25.565Z,27.32
2023-04-21T12:00:23.572Z,26.74
2023-04-21T12:01:23.665Z,27.23
2023-04-21T12:02:23.669Z,27.12
2023-04-21T12:03:23.672Z,26.92
2023-04-21T12:04:23.591Z,27.15
2023-04-21T12:05:23.543Z,27.75
2023-04-21T12:06:23.622Z,28.24
2023-04-21T12:07:23.494Z,28.96
2023-04-21T12:08:23.499Z,28.09
2023-04-21T12:09:23.481Z,28.78
2023-04-21T12:10:23.481Z,28.56
2023-04-21T12:11:23.489Z,28.97
2023-04-21T12:12:23.457Z,29.71
2023-04-21T12:13:23.493Z,30.00
2023-04-21T12:14:23.443Z,28.33
2023-04-21T12:15:23.476Z,28.92
2023-04-21T12:16:23.453Z,29.61
2023-04-21T12:17:23.419Z,29.43
2023-04-21T12:18:23.399Z,29.54
2023-04-21T12:19:23.402Z,30.70
2023-04-21T12:20:23.405Z,31.82
2023-04-21T12:21:23.385Z,31.90
2023-04-21T12:22:23.350Z,31.77
2023-04-21T12:23:23.344Z,31.46
2023-04-21T12:24:23.332Z,31.28
2023-04-21T12:25:23.348Z,31.49
2023-04-21T12:26:23.322Z,32.02
2023-04-21T12:27:23.325Z,33.14
2023-04-21T12:28:23.300Z,33.24
2023-04-21T12:29:23.332Z,33.45
2023-04-21T12:30:23.276Z,33.85
2023-04-21T12:31:23.371Z,33.55
2023-04-21T12:32:23.277Z,33.24
2023-04-21T12:33:23.386Z,33.62
2023-04-21T12:34:23.244Z,33.40
2023-04-21T12:35:23.233Z,32.51
2023-04-21T12:36:23.214Z,31.81
2023-04-21T12:37:23.220Z,32.50
2023-04-21T12:38:23.220Z,32.48
2023-04-21T12:39:23.897Z,31.31
2023-04-21T12:40:23.188Z,32.10
2023-04-21T12:41:23.167Z,31.82
2023-04-21T12:42:23.152Z,31.85
2023-04-21T12:43:23.161Z,32.15
2023-04-21T12:44:23.156Z,32.93
2023-04-21T12:45:23.164Z,32.51
2023-04-21T12:46:23.226Z,31.82
2023-04-21T12:47:23.201Z,32.00
2023-04-21T12:48:23.254Z,31.69
2023-04-21T12:49:23.137Z,31.44
2023-04-21T12:50:23.093Z,32.05
2023-04-21T12:51:23.090Z,32.05
2023-04-21T12:52:23.069Z,31.75
2023-04-21T12:53:23.089Z,31.96
2023-04-21T12:54:23.047Z,32.54
2023-04-21T12:55:23.066Z,31.63